Main page
METAR-TAF:

METAR-TAF

Airports :

Zeltweg, Austria

Zeltweg Air Base

latitude: 47-12N, longitude: 014-45E, elevation: 677 m

Current weather observation

The report was made 33 minutes ago, at 14:50 UTC
Wind 5 kt from the West
Temperature 5°C
Humidity 65%
Pressure 1025 hPa

METAR: LOXZ 231450Z 26005KT 30KM FEW035SC BKN060SC 05/M01 Q1025 NOSIG

Time: 16:23 (15:23 UTC)

Forecast

The report was made 1 hour and 8 minutes ago, at 14:15 UTC
Forecast valid from 23 at 15 UTC to 23 at 24 UTC
Wind 3 kt from variable directions
Visibility 10 km or more
Few clouds at a height of 4000 ft
Broken clouds at a height of 5000 ft

TAF: LOXZ 231415Z 2315/2324 VRB03KT 9999 FEW040 BKN050

Weather observations and forecasts of more than 4000 airports (METAR and TAF reports).

The available stations are represented by yellow and red dots on the map.

Hover mouse over dot to see the name of the station.

Then click to see weather observations and forecasts.

To change the map : click on the green buttons with a black cross to zoom in, on the green button with a dash to zoom out, or on the green arrows for adjacent maps.


METAR-TAF: